createdAt,value
2018-04-28T00:01:17.434Z,1.77
2018-04-28T00:03:45.485Z,2.07
2018-04-28T00:06:13.576Z,1.80
2018-04-28T00:08:41.681Z,1.80
2018-04-28T00:11:10.517Z,1.70
2018-04-28T00:13:38.616Z,2.20
2018-04-28T00:16:06.965Z,1.80
2018-04-28T00:18:35.069Z,1.90
2018-04-28T00:21:03.316Z,1.87
2018-04-28T00:23:31.617Z,1.90
2018-04-28T00:25:59.684Z,1.90
2018-04-28T00:28:27.761Z,1.90
2018-04-28T00:30:56.123Z,2.10
2018-04-28T00:33:24.214Z,1.60
2018-04-28T00:35:52.285Z,1.63
2018-04-28T00:38:22.200Z,1.73
2018-04-28T00:40:50.248Z,2.03
2018-04-28T00:43:18.345Z,1.90
2018-04-28T00:45:47.821Z,1.87
2018-04-28T00:48:15.894Z,1.67
2018-04-28T00:50:43.988Z,2.00
2018-04-28T00:53:12.314Z,2.00
2018-04-28T00:55:40.385Z,1.83
2018-04-28T00:58:08.453Z,1.73
2018-04-28T01:00:36.873Z,1.73
2018-04-28T01:03:04.945Z,1.90
2018-04-28T01:05:33.015Z,1.73
2018-04-28T01:08:01.486Z,1.90
2018-04-28T01:10:29.540Z,1.90
2018-04-28T01:12:57.624Z,1.80
2018-04-28T01:15:25.744Z,1.80
2018-04-28T01:17:54.567Z,1.60
2018-04-28T01:20:22.657Z,2.00
2018-04-28T01:22:50.773Z,2.10
2018-04-28T01:25:19.620Z,1.87
2018-04-28T01:27:47.688Z,1.83
2018-04-28T01:30:16.101Z,2.03
2018-04-28T01:32:44.141Z,1.90
2018-04-28T01:35:12.245Z,2.00
2018-04-28T01:37:40.328Z,1.77
2018-04-28T01:40:09.148Z,1.63
2018-04-28T01:42:37.252Z,2.10
2018-04-28T01:45:05.557Z,1.80
2018-04-28T01:47:34.617Z,1.90
2018-04-28T01:50:02.677Z,2.00
2018-04-28T01:52:31.056Z,2.07
2018-04-28T01:54:59.117Z,1.80
2018-04-28T01:57:27.208Z,2.00
2018-04-28T01:59:55.832Z,1.97
2018-04-28T02:02:23.868Z,2.30
2018-04-28T02:04:51.969Z,1.70
2018-04-28T02:07:20.034Z,2.17
2018-04-28T02:09:48.084Z,2.10
2018-04-28T02:12:16.181Z,2.20
2018-04-28T02:14:44.309Z,1.80
2018-04-28T02:17:12.397Z,2.00
2018-04-28T02:19:40.485Z,2.23
2018-04-28T02:22:08.833Z,2.10
2018-04-28T02:24:36.933Z,1.87
2018-04-28T02:27:04.977Z,1.80
2018-04-28T02:29:33.973Z,1.90
2018-04-28T02:32:02.043Z,2.20
2018-04-28T02:34:30.126Z,2.20
2018-04-28T02:36:58.260Z,1.90
2018-04-28T02:39:26.351Z,2.17
2018-04-28T02:41:54.421Z,2.30
2018-04-28T02:44:22.654Z,2.13
2018-04-28T02:46:51.507Z,2.27
2018-04-28T02:49:19.825Z,1.93
2018-04-28T02:51:48.982Z,1.93
2018-04-28T02:54:17.069Z,2.23
2018-04-28T02:56:45.164Z,2.00
2018-04-28T02:59:14.238Z,2.07
2018-04-28T03:01:42.293Z,2.10
2018-04-28T03:04:11.019Z,1.97
2018-04-28T03:06:39.881Z,1.83
2018-04-28T03:09:07.925Z,2.37
2018-04-28T03:11:35.985Z,2.47
2018-04-28T03:14:04.491Z,2.20
2018-04-28T03:16:33.089Z,2.13
2018-04-28T03:19:01.186Z,2.33
2018-04-28T03:21:30.013Z,2.30
2018-04-28T03:23:58.100Z,2.33
2018-04-28T03:26:26.193Z,1.97
2018-04-28T03:28:54.281Z,2.20
2018-04-28T03:31:22.343Z,2.30
2018-04-28T03:33:50.401Z,2.47
2018-04-28T03:36:18.488Z,2.10
2018-04-28T03:38:46.859Z,2.53
2018-04-28T03:41:15.120Z,2.20
2018-04-28T03:43:43.192Z,2.30
2018-04-28T03:46:11.564Z,2.30
2018-04-28T03:48:39.637Z,2.03
2018-04-28T03:51:07.704Z,2.50
2018-04-28T03:53:35.861Z,2.23
2018-04-28T03:56:03.852Z,2.33
2018-04-28T03:58:31.942Z,2.33
2018-04-28T04:01:00.400Z,2.43
2018-04-28T04:03:28.484Z,2.33
2018-04-28T04:05:56.745Z,2.37
2018-04-28T04:08:25.116Z,2.20
2018-04-28T04:10:53.205Z,2.43
2018-04-28T04:13:21.261Z,2.33
2018-04-28T04:15:49.333Z,2.40
2018-04-28T04:18:17.583Z,2.60
2018-04-28T04:20:45.589Z,2.47
2018-04-28T04:23:13.993Z,2.47
2018-04-28T04:25:42.073Z,2.57
2018-04-28T04:28:10.129Z,2.70
2018-04-28T04:30:38.204Z,2.07
2018-04-28T04:33:06.274Z,2.90
2018-04-28T04:35:34.341Z,2.90
2018-04-28T04:38:02.428Z,2.57
2018-04-28T04:40:30.465Z,2.63
2018-04-28T04:42:58.525Z,2.50
2018-04-28T04:45:26.833Z,2.50
2018-04-28T04:47:54.905Z,2.90
2018-04-28T04:50:22.956Z,2.60
2018-04-28T04:52:51.064Z,2.73
2018-04-28T04:55:19.915Z,3.20
2018-04-28T04:57:47.994Z,2.13
2018-04-28T05:00:16.064Z,2.77
2018-04-28T05:02:44.136Z,2.50
2018-04-28T05:05:12.229Z,2.57
2018-04-28T05:07:40.305Z,2.50
2018-04-28T05:10:08.353Z,2.87
2018-04-28T05:12:36.516Z,2.57
2018-04-28T05:15:05.625Z,2.90
2018-04-28T05:17:33.717Z,2.30
2018-04-28T05:20:02.085Z,2.43
2018-04-28T05:22:30.189Z,2.33
2018-04-28T05:24:59.024Z,2.40
2018-04-28T05:27:27.141Z,3.00
2018-04-28T05:29:56.002Z,2.57
2018-04-28T05:32:24.095Z,2.53
2018-04-28T05:34:52.145Z,2.87
2018-04-28T05:37:20.541Z,2.63
2018-04-28T05:39:48.620Z,3.20
2018-04-28T05:42:17.481Z,2.70
2018-04-28T05:44:45.589Z,2.57
2018-04-28T05:47:14.428Z,2.50
2018-04-28T05:49:42.519Z,2.80
2018-04-28T05:52:10.928Z,2.40
2018-04-28T05:54:39.772Z,2.70
2018-04-28T05:57:07.857Z,2.70
2018-04-28T05:59:36.270Z,2.80
2018-04-28T06:02:05.102Z,2.43
2018-04-28T06:04:33.185Z,2.63
2018-04-28T06:07:01.301Z,2.47
2018-04-28T06:09:30.266Z,2.47
2018-04-28T06:11:58.373Z,2.43
2018-04-28T06:14:27.607Z,2.20
2018-04-28T06:16:55.680Z,2.67
2018-04-28T06:19:23.781Z,2.43
2018-04-28T06:21:52.264Z,2.20
2018-04-28T06:24:21.245Z,2.33
2018-04-28T06:26:49.329Z,2.20
2018-04-28T06:29:17.429Z,2.30
2018-04-28T06:31:46.264Z,2.40
2018-04-28T06:34:14.436Z,2.27
2018-04-28T06:36:42.716Z,2.10
2018-04-28T06:39:10.812Z,2.23
2018-04-28T06:41:40.396Z,2.10
2018-04-28T06:44:08.468Z,2.13
2018-04-28T06:46:36.564Z,2.07
2018-04-28T06:49:04.652Z,2.30
2018-04-28T06:51:34.236Z,1.97
2018-04-28T06:54:02.293Z,2.53
2018-04-28T06:56:30.364Z,2.23
2018-04-28T06:58:59.061Z,2.30
2018-04-28T07:01:27.120Z,2.00
2018-04-28T07:03:55.228Z,1.93
2018-04-28T07:06:23.584Z,2.10
2018-04-28T07:08:51.656Z,1.63
2018-04-28T07:11:19.720Z,1.75
2018-04-28T07:13:47.802Z,1.60
2018-04-28T07:16:15.874Z,2.33
2018-04-28T07:18:43.957Z,1.67
2018-04-28T07:21:12.239Z,1.87
2018-04-28T07:23:40.489Z,1.55
2018-04-28T07:26:08.590Z,1.77
2018-04-28T07:28:36.673Z,1.77
2018-04-28T07:31:05.525Z,1.90
2018-04-28T07:33:33.593Z,1.33
2018-04-28T07:36:01.701Z,1.67
2018-04-28T07:38:30.532Z,1.67
2018-04-28T07:40:58.600Z,1.60
2018-04-28T07:43:26.698Z,1.50
2018-04-28T07:45:54.770Z,1.77
2018-04-28T07:48:22.868Z,1.67
2018-04-28T07:50:51.221Z,1.55
2018-04-28T07:53:19.321Z,1.50
2018-04-28T07:55:48.417Z,1.60
2018-04-28T07:58:17.304Z,1.90
2018-04-28T08:00:45.377Z,1.60
2018-04-28T08:03:13.470Z,1.70
2018-04-28T08:05:42.296Z,1.50
2018-04-28T08:08:10.413Z,1.20
2018-04-28T08:10:38.505Z,1.45
2018-04-28T08:13:06.544Z,1.40
2018-04-28T08:15:34.619Z,1.52
2018-04-28T08:18:03.086Z,1.42
2018-04-28T08:20:31.336Z,1.45
2018-04-28T08:22:59.400Z,1.40
2018-04-28T08:25:27.789Z,1.23
2018-04-28T08:27:55.869Z,1.30
2018-04-28T08:30:23.957Z,1.37
2018-04-28T08:32:52.057Z,1.60
2018-04-28T08:35:20.884Z,1.20
2018-04-28T08:37:48.960Z,1.00
2018-04-28T08:40:17.371Z,1.00
2018-04-28T08:42:46.364Z,1.55
2018-04-28T08:45:14.454Z,1.35
2018-04-28T08:47:42.525Z,1.58
2018-04-28T08:50:10.869Z,1.60
2018-04-28T08:52:38.974Z,1.52
2018-04-28T08:55:07.061Z,1.20
2018-04-28T08:57:36.241Z,1.27
2018-04-28T09:00:04.314Z,1.30
2018-04-28T09:02:32.356Z,1.85
2018-04-28T09:05:00.720Z,1.20
2018-04-28T09:07:28.880Z,1.27
2018-04-28T09:09:56.955Z,1.30
2018-04-28T09:12:25.025Z,1.52
2018-04-28T09:14:53.127Z,1.40
2018-04-28T09:17:21.180Z,1.30
2018-04-28T09:19:49.294Z,1.40
2018-04-28T09:22:17.365Z,1.25
2018-04-28T09:24:45.412Z,1.30
2018-04-28T09:27:13.965Z,1.50
2018-04-28T09:29:42.041Z,1.20
2018-04-28T09:32:10.237Z,1.23
2018-04-28T09:34:38.569Z,1.48
2018-04-28T09:37:06.669Z,1.40
2018-04-28T09:39:34.744Z,1.00
2018-04-28T09:42:02.825Z,1.00
2018-04-28T09:44:31.105Z,1.23
2018-04-28T09:46:59.193Z,1.00
2018-04-28T09:49:27.541Z,1.10
2018-04-28T09:51:55.598Z,1.00
2018-04-28T09:54:23.669Z,0.90
2018-04-28T09:56:51.800Z,1.15
2018-04-28T09:59:20.631Z,1.10
2018-04-28T10:01:48.703Z,1.67
2018-04-28T10:04:16.821Z,1.35
2018-04-28T10:06:44.899Z,1.17
2018-04-28T10:09:12.979Z,1.05
2018-04-28T10:11:41.441Z,0.95
2018-04-28T10:14:09.524Z,1.17
2018-04-28T10:16:37.568Z,0.90
2018-04-28T10:19:05.662Z,1.05
2018-04-28T10:21:33.709Z,1.02
2018-04-28T10:24:01.863Z,1.00
2018-04-28T10:26:29.943Z,0.93
2018-04-28T10:28:58.013Z,1.00
2018-04-28T10:31:26.101Z,1.00
2018-04-28T10:33:54.309Z,1.20
2018-04-28T10:36:23.161Z,1.05
2018-04-28T10:38:51.224Z,1.10
2018-04-28T10:41:19.629Z,0.90
2018-04-28T10:43:47.728Z,1.20
2018-04-28T10:46:16.753Z,1.17
2018-04-28T10:48:45.210Z,1.17
2018-04-28T10:51:14.053Z,1.30
2018-04-28T10:53:42.202Z,1.12
2018-04-28T10:56:10.594Z,1.30
2018-04-28T10:58:38.677Z,1.10
2018-04-28T11:01:06.736Z,1.30
2018-04-28T11:03:34.832Z,1.25
2018-04-28T11:06:02.905Z,1.05
2018-04-28T11:08:30.957Z,1.17
2018-04-28T11:10:59.457Z,1.15
2018-04-28T11:13:27.525Z,1.50
2018-04-28T11:15:57.097Z,1.30
2018-04-28T11:18:25.590Z,1.52
2018-04-28T11:20:53.657Z,1.23
2018-04-28T11:23:21.748Z,1.60
2018-04-28T11:25:50.169Z,1.10
2018-04-28T11:28:18.189Z,1.25
2018-04-28T11:30:46.282Z,1.23
2018-04-28T11:33:14.348Z,1.45
2018-04-28T11:35:42.627Z,1.50
2018-04-28T11:38:10.705Z,1.20
2018-04-28T11:40:39.152Z,1.42
2018-04-28T11:43:07.212Z,1.05
2018-04-28T11:45:35.284Z,1.30
2018-04-28T11:48:03.393Z,1.30
2018-04-28T11:50:31.453Z,1.58
2018-04-28T11:52:59.536Z,1.48
2018-04-28T11:55:27.642Z,1.17
2018-04-28T11:57:56.485Z,1.48
2018-04-28T12:00:24.657Z,1.50
2018-04-28T12:02:52.729Z,1.40
2018-04-28T12:05:20.820Z,1.50
2018-04-28T12:07:49.682Z,1.30
2018-04-28T12:10:17.761Z,1.30
2018-04-28T12:12:45.830Z,1.20
2018-04-28T12:15:13.933Z,1.30
2018-04-28T12:17:42.816Z,1.17
2018-04-28T12:20:10.865Z,1.25
2018-04-28T12:22:38.957Z,1.33
2018-04-28T12:25:07.351Z,1.00
2018-04-28T12:27:36.244Z,1.20
2018-04-28T12:30:05.181Z,1.08
2018-04-28T12:32:34.021Z,1.30
2018-04-28T12:35:02.881Z,1.08
2018-04-28T12:37:30.972Z,1.12
2018-04-28T12:39:59.057Z,0.98
2018-04-28T12:42:27.936Z,1.30
2018-04-28T12:44:55.988Z,1.00
2018-04-28T12:47:24.608Z,1.10
2018-04-28T12:49:53.793Z,1.00
2018-04-28T12:52:21.845Z,1.20
2018-04-28T12:54:50.245Z,1.25
2018-04-28T12:57:18.292Z,1.17
2018-04-28T12:59:46.349Z,1.20
2018-04-28T13:02:14.474Z,1.00
2018-04-28T13:04:43.345Z,1.12
2018-04-28T13:07:11.428Z,1.05
2018-04-28T13:09:40.523Z,1.00
2018-04-28T13:12:09.361Z,1.17
2018-04-28T13:14:37.545Z,1.30
2018-04-28T13:17:05.656Z,1.10
2018-04-28T13:19:34.521Z,1.27
2018-04-28T13:22:03.228Z,1.10
2018-04-28T13:24:31.308Z,0.93
2018-04-28T13:27:00.261Z,1.02
2018-04-28T13:29:29.080Z,1.33
2018-04-28T13:31:58.064Z,1.17
2018-04-28T13:34:26.762Z,1.08
2018-04-28T13:36:54.857Z,1.12
2018-04-28T13:39:22.900Z,0.98
2018-04-28T13:41:52.109Z,1.20
2018-04-28T13:44:20.968Z,1.10
2018-04-28T13:46:50.564Z,1.20
2018-04-28T13:49:18.976Z,1.00
2018-04-28T13:51:47.028Z,1.12
2018-04-28T13:54:15.117Z,1.10
2018-04-28T13:56:43.468Z,0.90
2018-04-28T13:59:11.730Z,1.30
2018-04-28T14:01:39.823Z,1.23
2018-04-28T14:04:07.918Z,0.95
2018-04-28T14:06:35.991Z,1.17
2018-04-28T14:09:04.072Z,1.20
2018-04-28T14:11:33.181Z,0.93
2018-04-28T14:14:01.235Z,1.12
2018-04-28T14:16:30.089Z,1.27
2018-04-28T14:18:59.405Z,1.20
2018-04-28T14:21:27.500Z,1.15
2018-04-28T14:23:56.357Z,1.25
2018-04-28T14:26:24.757Z,1.10
2018-04-28T14:28:52.833Z,1.12
2018-04-28T14:31:21.702Z,0.95
2018-04-28T14:33:49.797Z,1.30
2018-04-28T14:36:18.829Z,1.25
2018-04-28T14:38:46.906Z,1.10
2018-04-28T14:41:15.445Z,1.20
2018-04-28T14:43:43.539Z,1.10
2018-04-28T14:46:11.589Z,1.20
2018-04-28T14:48:40.577Z,1.20
2018-04-28T14:51:08.636Z,1.50
2018-04-28T14:53:36.717Z,1.17
2018-04-28T14:56:05.173Z,1.40
2018-04-28T14:58:33.248Z,1.50
2018-04-28T15:01:01.342Z,1.25
2018-04-28T15:03:30.541Z,1.30
2018-04-28T15:05:58.625Z,1.15
2018-04-28T15:08:27.473Z,1.05
2018-04-28T15:10:55.564Z,1.10
2018-04-28T15:13:23.792Z,1.30
2018-04-28T15:15:51.868Z,1.10
2018-04-28T15:18:19.948Z,1.00
2018-04-28T15:20:48.042Z,1.20
2018-04-28T15:23:16.133Z,1.00
2018-04-28T15:25:44.386Z,1.08
2018-04-28T15:28:12.481Z,1.10
2018-04-28T15:30:40.530Z,1.20
2018-04-28T15:33:08.836Z,1.33
2018-04-28T15:35:37.668Z,0.93
2018-04-28T15:38:05.974Z,1.10
2018-04-28T15:40:34.060Z,1.15
2018-04-28T15:43:02.119Z,1.27
2018-04-28T15:45:30.190Z,0.90
2018-04-28T15:47:58.574Z,1.30
2018-04-28T15:50:26.642Z,1.10
2018-04-28T15:52:54.719Z,1.20
2018-04-28T15:55:23.157Z,1.08
2018-04-28T15:57:51.169Z,1.00
2018-04-28T16:00:19.241Z,1.30
2018-04-28T16:02:47.647Z,1.15
2018-04-28T16:05:15.673Z,1.50
2018-04-28T16:07:43.742Z,1.17
2018-04-28T16:10:12.021Z,1.08
2018-04-28T16:12:40.125Z,1.10
2018-04-28T16:15:08.212Z,1.20
2018-04-28T16:17:37.360Z,1.00
2018-04-28T16:20:05.422Z,1.17
2018-04-28T16:22:33.481Z,1.30
2018-04-28T16:25:01.608Z,1.30
2018-04-28T16:27:29.794Z,1.40
2018-04-28T16:29:57.800Z,1.17
2018-04-28T16:32:26.332Z,1.35
2018-04-28T16:34:54.377Z,1.20
2018-04-28T16:37:22.432Z,1.15
2018-04-28T16:39:51.232Z,1.60
2018-04-28T16:42:19.333Z,1.50
2018-04-28T16:44:47.404Z,1.50
2018-04-28T16:47:15.784Z,1.27
2018-04-28T16:49:43.857Z,1.37
2018-04-28T16:52:11.929Z,1.05
2018-04-28T16:54:40.009Z,1.23
2018-04-28T16:57:08.837Z,1.45
2018-04-28T16:59:37.840Z,1.15
2018-04-28T17:02:05.908Z,1.12
2018-04-28T17:04:33.997Z,1.12
2018-04-28T17:07:02.099Z,1.40
2018-04-28T17:09:30.173Z,1.50
2018-04-28T17:11:59.029Z,1.30
2018-04-28T17:14:27.392Z,1.40
2018-04-28T17:16:55.992Z,1.23
2018-04-28T17:19:24.048Z,1.47
2018-04-28T17:21:52.317Z,1.33
2018-04-28T17:24:20.486Z,1.57
2018-04-28T17:26:48.556Z,1.70
2018-04-28T17:29:16.935Z,1.80
2018-04-28T17:31:45.017Z,1.50
2018-04-28T17:34:13.083Z,1.40
2018-04-28T17:36:41.197Z,1.77
2018-04-28T17:39:09.232Z,1.60
2018-04-28T17:41:37.320Z,1.50
2018-04-28T17:44:05.580Z,1.73
2018-04-28T17:46:33.659Z,1.70
2018-04-28T17:49:01.813Z,1.50
2018-04-28T17:51:29.900Z,1.50
2018-04-28T17:53:57.958Z,1.60
2018-04-28T17:56:26.056Z,1.70
2018-04-28T17:58:54.124Z,1.50
2018-04-28T18:01:22.305Z,1.60
2018-04-28T18:03:50.400Z,1.50
2018-04-28T18:06:18.841Z,1.33
2018-04-28T18:08:46.902Z,1.50
2018-04-28T18:11:14.976Z,1.70
2018-04-28T18:13:43.390Z,1.73
2018-04-28T18:16:11.451Z,1.70
2018-04-28T18:18:39.534Z,1.73
2018-04-28T18:21:07.638Z,1.50
2018-04-28T18:23:36.480Z,1.57
2018-04-28T18:26:04.619Z,1.57
2018-04-28T18:28:32.926Z,1.70
2018-04-28T18:31:00.996Z,1.70
2018-04-28T18:33:29.060Z,1.90
2018-04-28T18:35:57.136Z,1.80
2018-04-28T18:38:25.824Z,1.90
2018-04-28T18:40:53.990Z,1.67
2018-04-28T18:43:21.968Z,1.93
2018-04-28T18:45:50.040Z,1.83
2018-04-28T18:48:18.129Z,1.70
2018-04-28T18:50:46.203Z,1.87
2018-04-28T18:53:14.257Z,2.43
2018-04-28T18:55:42.345Z,2.30
2018-04-28T18:58:10.400Z,2.43
2018-04-28T19:00:38.809Z,2.60
2018-04-28T19:03:06.854Z,2.40
2018-04-28T19:05:34.909Z,2.20
2018-04-28T19:08:03.532Z,2.00
2018-04-28T19:10:31.581Z,2.17
2018-04-28T19:12:59.677Z,1.90
2018-04-28T19:15:28.012Z,1.80
2018-04-28T19:17:56.105Z,2.37
2018-04-28T19:20:24.172Z,1.90
2018-04-28T19:22:52.536Z,1.83
2018-04-28T19:25:21.233Z,1.60
2018-04-28T19:27:49.293Z,2.30
2018-04-28T19:30:17.392Z,1.90
2018-04-28T19:32:46.966Z,2.03
2018-04-28T19:35:15.049Z,1.90
2018-04-28T19:37:43.145Z,2.07
2018-04-28T19:40:11.200Z,1.93
2018-04-28T19:42:39.268Z,2.40
2018-04-28T19:45:07.419Z,2.20
2018-04-28T19:47:35.500Z,2.20
2018-04-28T19:50:03.605Z,2.10
2018-04-28T19:52:31.677Z,2.03
2018-04-28T19:54:59.936Z,1.93
2018-04-28T19:57:28.097Z,1.80
2018-04-28T19:59:56.243Z,1.87
2018-04-28T20:02:25.397Z,1.97
2018-04-28T20:04:53.484Z,2.00
2018-04-28T20:07:22.344Z,1.93
2018-04-28T20:09:50.522Z,1.97
2018-04-28T20:12:20.029Z,2.23
2018-04-28T20:14:48.117Z,1.90
2018-04-28T20:17:16.192Z,1.87
2018-04-28T20:19:44.533Z,2.00
2018-04-28T20:22:12.616Z,1.80
2018-04-28T20:24:40.717Z,2.20
2018-04-28T20:27:09.601Z,2.00
2018-04-28T20:29:37.648Z,2.10
2018-04-28T20:32:05.709Z,1.50
2018-04-28T20:34:34.117Z,1.80
2018-04-28T20:37:02.377Z,1.80
2018-04-28T20:39:30.475Z,1.97
2018-04-28T20:41:59.677Z,1.90
2018-04-28T20:44:29.258Z,1.90
2018-04-28T20:46:57.325Z,2.13
2018-04-28T20:49:25.417Z,2.23
2018-04-28T20:51:53.807Z,2.07
2018-04-28T20:54:21.937Z,1.97
2018-04-28T20:56:50.016Z,2.10
2018-04-28T20:59:18.433Z,1.93
2018-04-28T21:01:47.328Z,2.03
2018-04-28T21:04:16.189Z,2.07
2018-04-28T21:06:44.660Z,2.60
2018-04-28T21:09:12.816Z,2.27
2018-04-28T21:11:40.909Z,2.20
2018-04-28T21:14:09.284Z,2.10
2018-04-28T21:16:37.349Z,1.93
2018-04-28T21:19:05.433Z,2.20
2018-04-28T21:21:33.789Z,1.87
2018-04-28T21:24:01.885Z,2.10
2018-04-28T21:26:29.968Z,2.17
2018-04-28T21:28:59.744Z,2.20
2018-04-28T21:31:27.841Z,2.00
2018-04-28T21:33:56.073Z,2.00
2018-04-28T21:36:24.472Z,2.30
2018-04-28T21:38:52.565Z,2.40
2018-04-28T21:41:20.626Z,2.00
2018-04-28T21:43:49.029Z,2.00
2018-04-28T21:46:17.293Z,2.40
2018-04-28T21:48:45.364Z,2.30
2018-04-28T21:51:13.732Z,2.10
2018-04-28T21:53:41.805Z,2.50
2018-04-28T21:56:09.901Z,2.33
2018-04-28T21:58:38.461Z,2.40
2018-04-28T22:01:06.553Z,2.20
2018-04-28T22:03:34.633Z,2.30
2018-04-28T22:06:03.824Z,2.53
2018-04-28T22:08:31.904Z,2.33
2018-04-28T22:11:00.769Z,2.40
2018-04-28T22:13:29.777Z,2.23
2018-04-28T22:15:57.862Z,2.80
2018-04-28T22:18:26.688Z,2.70
2018-04-28T22:20:54.781Z,2.30
2018-04-28T22:23:22.869Z,2.47
2018-04-28T22:25:50.929Z,2.47
2018-04-28T22:28:19.020Z,2.67
2018-04-28T22:30:47.095Z,2.17
2018-04-28T22:33:15.167Z,2.40
2018-04-28T22:35:43.494Z,2.30
2018-04-28T22:38:11.562Z,2.60
2018-04-28T22:40:39.645Z,2.50
2018-04-28T22:43:07.735Z,2.33
2018-04-28T22:45:35.813Z,2.30
2018-04-28T22:48:04.215Z,2.43
2018-04-28T22:50:32.577Z,2.53
2018-04-28T22:53:00.638Z,2.50
2018-04-28T22:55:28.741Z,2.57
2018-04-28T22:57:57.807Z,2.40
2018-04-28T23:00:25.951Z,2.87
2018-04-28T23:02:54.041Z,2.30
2018-04-28T23:05:22.449Z,2.30
2018-04-28T23:07:50.513Z,2.50
2018-04-28T23:10:18.576Z,2.10
2018-04-28T23:12:46.656Z,2.57
2018-04-28T23:15:14.719Z,2.70
2018-04-28T23:17:42.764Z,2.30
2018-04-28T23:20:11.381Z,2.50
2018-04-28T23:22:39.421Z,2.40
2018-04-28T23:25:07.890Z,2.53
2018-04-28T23:27:36.288Z,3.10
2018-04-28T23:30:04.385Z,2.83
2018-04-28T23:32:32.432Z,2.73
2018-04-28T23:35:00.505Z,2.57
2018-04-28T23:37:28.885Z,2.63
2018-04-28T23:39:56.957Z,2.40
2018-04-28T23:42:25.155Z,2.70
2018-04-28T23:44:53.204Z,2.47
2018-04-28T23:47:21.260Z,2.53
2018-04-28T23:49:49.636Z,2.60
2018-04-28T23:52:17.696Z,2.40
2018-04-28T23:54:45.773Z,2.63
2018-04-28T23:57:13.865Z,2.60
2018-04-28T23:59:42.953Z,2.47
